Time,TemperatureF,DewpointF,PressureIn,WindDirection,WindDirectionDegrees,WindSpeedMPH,WindSpeedGustMPH,Humidity,HourlyPrecipIn,Conditions,Clouds,dailyrainin,SoftwareType,DateUTC
2013-05-28 00:05:00,67.2,63.2,29.68,ESE,121,0.0,15.0,87,0.00,,---,0.00,VWS V14.01,2013-05-28 05:05:00,
2013-05-28 00:35:00,66.4,63.7,29.67,West,261,0.0,9.0,91,0.12,,---,0.12,VWS V14.01,2013-05-28 05:35:00,
2013-05-28 01:05:00,65.4,63.6,29.69,SE,127,0.0,9.0,94,0.16,,---,0.16,VWS V14.01,2013-05-28 06:05:00,
2013-05-28 01:35:00,65.1,63.6,29.70,NNW,329,0.0,9.0,95,0.27,,---,0.27,VWS V14.01,2013-05-28 06:35:00,
2013-05-28 02:05:00,65.1,63.6,29.65,WNW,293,0.0,15.0,95,0.26,,---,0.38,VWS V14.01,2013-05-28 07:05:00,
2013-05-28 02:35:00,64.7,63.2,29.63,North,5,0.0,6.0,95,0.29,,---,0.45,VWS V14.01,2013-05-28 07:35:00,
2013-05-28 03:05:00,64.4,63.2,29.58,North,9,6.0,9.0,96,0.22,,---,0.49,VWS V14.01,2013-05-28 08:05:00,
2013-05-28 03:35:00,64.3,63.1,29.59,ESE,111,0.0,21.0,96,0.12,,---,0.50,VWS V14.01,2013-05-28 08:35:00,
2013-05-28 04:05:00,64.0,62.8,29.60,ESE,119,6.0,18.0,96,0.05,,---,0.50,VWS V14.01,2013-05-28 09:05:00,
2013-05-28 04:35:00,63.6,62.4,29.63,ESE,122,0.0,12.0,96,0.01,,---,0.50,VWS V14.01,2013-05-28 09:35:00,
2013-05-28 05:05:00,63.0,61.8,29.64,ESE,122,0.0,3.0,96,0.00,,---,0.50,VWS V14.01,2013-05-28 10:05:00,
2013-05-28 05:35:00,62.7,61.5,29.66,ESE,122,0.0,0.0,96,0.00,,---,0.50,VWS V14.01,2013-05-28 10:35:00,
2013-05-28 06:05:00,63.1,62.2,29.64,ESE,122,0.0,0.0,97,0.00,,---,0.50,VWS V14.01,2013-05-28 11:05:00,
2013-05-28 06:35:00,63.5,62.6,29.65,ESE,122,0.0,6.0,97,0.00,,---,0.50,VWS V14.01,2013-05-28 11:35:00,
2013-05-28 07:05:00,63.9,63.0,29.65,East,88,0.0,6.0,97,0.00,,---,0.50,VWS V14.01,2013-05-28 12:05:00,
2013-05-28 07:35:00,64.2,63.3,29.64,SSW,194,9.0,12.0,97,0.00,,---,0.50,VWS V14.01,2013-05-28 12:35:00,
2013-05-28 08:05:00,64.5,63.6,29.63,SE,128,9.0,12.0,97,0.00,,---,0.50,VWS V14.01,2013-05-28 13:05:00,
2013-05-28 08:35:00,64.8,63.6,29.63,SSW,202,0.0,27.0,96,0.00,,---,0.50,VWS V14.01,2013-05-28 13:35:00,
2013-05-28 09:05:00,66.2,64.1,29.64,South,186,0.0,24.0,93,0.00,,---,0.50,VWS V14.01,2013-05-28 14:05:00,
2013-05-28 09:35:00,67.7,64.3,29.64,WSW,246,6.0,24.0,89,0.00,,---,0.50,VWS V14.01,2013-05-28 14:35:00,
2013-05-28 10:05:00,68.7,65.3,29.64,SW,220,9.0,18.0,89,0.00,,---,0.50,VWS V14.01,2013-05-28 15:05:00,
2013-05-28 10:35:00,70.6,65.2,29.64,ESE,117,9.0,21.0,83,0.00,,---,0.50,VWS V14.01,2013-05-28 15:35:00,
2013-05-28 11:05:00,71.5,65.7,29.64,SSW,195,6.0,36.0,82,0.00,,---,0.50,VWS V14.01,2013-05-28 16:05:00,
2013-05-28 11:35:00,72.6,66.4,29.64,SSW,211,3.0,18.0,81,0.00,,---,0.50,VWS V14.01,2013-05-28 16:35:00,
2013-05-28 12:05:00,74.0,66.7,29.65,South,175,3.0,18.0,78,0.00,,---,0.50,VWS V14.01,2013-05-28 17:05:00,
2013-05-28 12:35:00,75.0,66.6,29.65,South,175,15.0,24.0,75,0.00,,---,0.50,VWS V14.01,2013-05-28 17:35:00,
2013-05-28 13:05:00,75.9,66.6,29.66,WSW,256,9.0,24.0,73,0.00,,---,0.50,VWS V14.01,2013-05-28 18:05:00,
2013-05-28 13:35:00,77.8,65.1,29.66,NNE,13,3.0,27.0,65,0.00,,---,0.50,VWS V14.01,2013-05-28 18:35:00,
2013-05-28 14:05:00,77.5,65.7,29.67,South,169,3.0,21.0,67,0.00,,---,0.50,VWS V14.01,2013-05-28 19:05:00,
2013-05-28 14:35:00,78.5,64.0,29.67,ENE,78,0.0,21.0,61,0.00,,---,0.50,VWS V14.01,2013-05-28 19:35:00,
2013-05-28 15:05:00,79.8,64.7,29.67,SW,215,6.0,30.0,60,0.00,,---,0.50,VWS V14.01,2013-05-28 20:05:00,
2013-05-28 15:35:00,78.2,64.1,29.69,ESE,113,9.0,21.0,62,0.00,,---,0.50,VWS V14.01,2013-05-28 20:35:00,
2013-05-28 16:05:00,76.6,63.5,29.67,NW,321,0.0,18.0,64,0.00,,---,0.50,VWS V14.01,2013-05-28 21:05:00,
2013-05-28 16:35:00,79.9,63.8,29.67,NNE,18,0.0,12.0,58,0.00,,---,0.50,VWS V14.01,2013-05-28 21:35:00,
2013-05-28 17:05:00,79.4,64.8,29.65,North,9,6.0,15.0,61,0.00,,---,0.50,VWS V14.01,2013-05-28 22:05:00,
2013-05-28 17:35:00,81.2,66.5,29.66,NNE,27,3.0,15.0,61,0.00,,---,0.50,VWS V14.01,2013-05-28 22:35:00,
2013-05-28 18:05:00,79.6,64.5,29.68,NW,319,0.0,9.0,60,0.00,,---,0.50,VWS V14.01,2013-05-28 23:05:00,
2013-05-28 18:35:00,76.7,64.5,29.67,East,85,3.0,9.0,66,0.00,,---,0.50,VWS V14.01,2013-05-28 23:35:00,
2013-05-28 19:05:00,74.9,64.5,29.64,East,84,0.0,6.0,70,0.00,,---,0.50,VWS V14.01,2013-05-29 00:05:00,
2013-05-28 19:35:00,73.3,64.9,29.65,SSE,155,0.0,6.0,75,0.00,,---,0.50,VWS V14.01,2013-05-29 00:35:00,
2013-05-28 20:05:00,72.5,65.3,29.66,SE,126,0.0,9.0,78,0.00,,---,0.50,VWS V14.01,2013-05-29 01:05:00,
2013-05-28 20:35:00,72.4,65.5,29.65,SE,126,15.0,15.0,79,0.00,,---,0.50,VWS V14.01,2013-05-29 01:35:00,
2013-05-28 21:05:00,71.2,66.8,29.71,ESE,122,12.0,15.0,86,0.00,,---,0.50,VWS V14.01,2013-05-29 02:05:00,
2013-05-28 21:35:00,69.4,64.0,29.71,ESE,107,9.0,30.0,83,0.00,,---,0.50,VWS V14.01,2013-05-29 02:35:00,
2013-05-28 22:05:00,67.9,62.2,29.71,ESE,117,6.0,24.0,82,0.00,,---,0.50,VWS V14.01,2013-05-29 03:05:00,
2013-05-28 22:35:00,66.9,61.6,29.73,ESE,119,3.0,18.0,83,0.00,,---,0.50,VWS V14.01,2013-05-29 03:35:00,
2013-05-28 23:05:00,66.1,61.5,29.72,ESE,120,3.0,18.0,85,0.00,,---,0.50,VWS V14.01,2013-05-29 04:05:00,
2013-05-28 23:35:00,65.5,61.2,29.71,SE,135,3.0,12.0,86,0.00,,---,0.50,VWS V14.01,2013-05-29 04:35:00,